This is the latest recevied weather packets stored in our database for station/object AI9T. If no packets are shown the sender has not sent any weather packets the latest 10 day(s).
| Time | Temp. | Humidity | Pressure | Rain* | Wind** | Luminosity | Snow |
|---|---|---|---|---|---|---|---|
| 1778235604 | 10° C | 69% | 1012.5 hPa | 0 mm | - | - | - |
| 1778235304 | 10° C | 69% | 1012.5 hPa | 0 mm | - | - | - |
| 1778232303 | 10.56° C | 66% | 1012.3 hPa | 0 mm | - | - | - |
| 1778231704 | 10.56° C | 65% | 1012.3 hPa | 0 mm | - | - | - |
| 1778229304 | 10.56° C | 64% | 1012.3 hPa | 0 mm | - | - | - |
| 1778227204 | 10.56° C | 66% | 1012.7 hPa | 0 mm | - | - | - |
| 1778224205 | 11.11° C | 63% | 1013.2 hPa | 0 mm | - | - | - |
| 1778223604 | 11.11° C | 63% | 1013.3 hPa | 0 mm | - | - | - |
| 1778222404 | 11.67° C | 61% | 1013.4 hPa | 0 mm | - | - | - |
| 1778221804 | 11.67° C | 60% | 1013.5 hPa | 0 mm | - | - | - |
| 1778220904 | 12.22° C | 59% | 1013.6 hPa | 0 mm | - | - | - |
| 1778219704 | 12.78° C | 57% | 1013.6 hPa | 0 mm | - | - | - |
| 1778218204 | 13.33° C | 54% | 1013.7 hPa | 0 mm | - | - | - |
| 1778215804 | 13.33° C | 54% | 1013.5 hPa | 0 mm | - | - | - |
| 1778212204 | 12.22° C | 58% | 1013.4 hPa | 0 mm | - | - | - |
| 1778210704 | 12.22° C | 60% | 1013.5 hPa | 0 mm | - | - | - |
| 1778204404 | 13.33° C | 58% | 1013 hPa | 0 mm | - | - | - |
| 1778198703 | 15.56° C | 48% | 1012.6 hPa | 0 mm | - | - | - |
| 1778197803 | 15.56° C | 48% | 1012.7 hPa | 0 mm | - | - | - |
| 1778191803 | 17.22° C | 39% | 1013 hPa | 0 mm | - | - | - |
| 1778190603 | 17.22° C | 39% | 1013.1 hPa | 0 mm | - | - | - |
| 1778190003 | 17.22° C | 42% | 1012.9 hPa | 0 mm | - | - | - |
| 1778188203 | 17.78° C | 37% | 1013 hPa | 0 mm | - | - | - |
| 1778187003 | 17.78° C | 36% | 1013.3 hPa | 0 mm | - | - | - |
| 1778183104 | 17.78° C | 33% | 1014.3 hPa | 0 mm | - | - | - |
* Rain latest hour (hover to see other rain measurements)
** Current wind speed in m/s (hover to see current wind gust speed)